Flight Track Log - Related Links

Times and Time Zones

All times are in EDT time to prevent confusion due to time zone crossing. See the EVA554 flight status page for this flight to view local times or setup timezone preferences in your user account.

Time Position Orientation Groundspeed Altitude Reporting Facility
EDT Latitude Longitude Course Direction KTS MPH feet Rate Location/Type
Sun 09:45:08 PM -30.3122 153.1172 357° North 16,000  Level Aus ATC (Calculated)
Sun 09:45:43 PM -30.2224 153.1128 357° North 16,000 -797 Level Aus ATC (Calculated)
Sun 09:46:01 PM -30.2224 153.1128 357° North 16,000 -868 Level Aus ATC (Calculated)
Sun 09:47:21 PM -30.1325 153.1084 357° North 16,000 -910 Level Aus ATC (Calculated)
Sun 09:47:43 PM -30.1325 153.1084 357° North 16,000 -1,155 Level Aus ATC (Calculated)
Sun 09:48:01 PM -30.1325 153.1084 357° North 16,000 -1,248 Level Aus ATC (Calculated)
Sun 09:48:43 PM -30.0427 153.1041 356° North 16,000 -1,336 Level Aus ATC (Calculated)
Sun 09:50:00 PM -29.9258 153.0984 358° North  Level FlightAware Approximate
Sun 09:51:00 PM -29.8348 153.0940 358° North  Level FlightAware Approximate
Sun 09:52:17 PM -29.9564 153.0977 358° North 253 291 10,300  Level Aus ATC (RADAR)
Sun 09:52:47 PM -29.9202 153.0963 358° North 260 299 10,800 1,114 Climbing Aus ATC (RADAR)
Sun 09:53:27 PM -29.8694 153.0933 357° North 255 293 11,600 720 Climbing Aus ATC (RADAR)
Sun 09:54:02 PM -29.8262 153.0909 357° North 264 304 11,700 667 Climbing Aus ATC (RADAR)
Sun 09:54:57 PM -29.7600 153.0877 358° North 259 298 12,600 835 Climbing Aus ATC (RADAR)
Sun 09:55:57 PM -29.6867 153.0836 357° North 262 302 13,300 727 Climbing Aus ATC (RADAR)
Sun 09:56:36 PM -29.6376 153.0932 10° North 269 310 13,800 649 Climbing Aus ATC (RADAR)
Sun 09:57:11 PM -29.5952 153.1036 12° North 268 308 14,100 488 Climbing Aus ATC (RADAR)
Sun 09:58:02 PM -29.5334 153.1184 12° North 272 313 14,500 560 Climbing Aus ATC (RADAR)
Sun 09:58:26 PM -29.5024 153.1263 12° North 273 314 14,800 469 Climbing Aus ATC (RADAR)
Sun 09:59:06 PM -29.4528 153.1401 14° North 275 316 15,000 560 Climbing Aus ATC (RADAR)
Sun 09:59:41 PM -29.4094 153.1523 14° North 271 312 15,500 720 Climbing Aus ATC (RADAR)
Sun 10:00:21 PM -29.3605 153.1665 14° North 270 311 15,900 505 Climbing Aus ATC (RADAR)
Sun 10:01:16 PM -29.2941 153.1869 15° North 270 311 16,300 225 Climbing Aus ATC (RADAR)
Sun 10:01:41 PM -29.2634 153.1974 17° North 275 316 16,200 -100 Descending Aus ATC (RADAR)
Sun 10:02:16 PM -29.2187 153.2112 15° North 284 327 16,200  Level Aus ATC (RADAR)
Sun 10:03:01 PM -29.1602 153.2283 14° North 289 333 16,200  Level Aus ATC (RADAR)
Sun 10:03:41 PM -29.1081 153.2429 14° North 288 331 16,200  Level Aus ATC (RADAR)
Sun 10:04:26 PM -29.0495 153.2610 15° North 290 334 16,200  Level Aus ATC (RADAR)
Sun 10:04:51 PM -29.0183 153.2708 15° North 281 323 16,200  Level Aus ATC (RADAR)
Sun 10:05:21 PM -28.9831 153.2804 13° North 262 302 16,200  Level Aus ATC (RADAR)
Sun 10:06:15 PM -28.9224 153.2999 16° North 245 282 16,200  Level Aus ATC (RADAR)
Sun 10:06:45 PM -28.8908 153.3106 17° North 237 273 16,200  Level Aus ATC (RADAR)
Sun 10:07:20 PM -28.8543 153.3216 15° North 232 267 16,200  Level Aus ATC (RADAR)
Sun 10:07:55 PM -28.8182 153.3314 13° North 228 262 16,200  Level Aus ATC (RADAR)
Sun 10:08:35 PM -28.7779 153.3447 16° North 226 260 16,200  Level Aus ATC (RADAR)
Sun 10:09:20 PM -28.7330 153.3583 15° North 221 254 16,200  Level Aus ATC (RADAR)
Sun 10:09:46 PM -28.7079 153.3658 15° North 222 255 16,200  Level Aus ATC (RADAR)
Sun 10:10:20 PM -28.6732 153.3757 14° North 220 253 16,200  Level Aus ATC (RADAR)
Sun 10:11:20 PM -28.6137 153.3916 13° North 219 252 16,200  Level Aus ATC (RADAR)
Sun 10:11:50 PM -28.5837 153.3984 11° North 220 253 16,200  Level Aus ATC (RADAR)
Sun 10:12:25 PM -28.5510 153.4123 20° North 215 247 16,200  Level Aus ATC (RADAR)
Sun 10:13:10 PM -28.5163 153.4494 43° Northeast 225 259 16,200  Level Aus ATC (RADAR)
Sun 10:13:45 PM -28.4890 153.4761 41° Northeast 223 257 16,200  Level Aus ATC (RADAR)
Sun 10:14:30 PM -28.4540 153.5115 42° Northeast 224 258 16,200  Level Aus ATC (RADAR)
Sun 10:14:55 PM -28.4344 153.5309 41° Northeast 225 259 16,200  Level Aus ATC (RADAR)
Sun 10:15:30 PM -28.4073 153.5585 42° Northeast 225 259 16,200  Level Aus ATC (RADAR)
Sun 10:16:50 PM -28.3445 153.6209 41° Northeast 227 261 16,200  Level Aus ATC (RADAR)
Sun 10:17:05 PM -28.3328 153.6325 41° Northeast 225 259 16,200  Level Aus ATC (RADAR)
Sun 10:17:40 PM -28.3052 153.6598 41° Northeast 225 259 16,200  Level Aus ATC (RADAR)
Sun 10:18:24 PM -28.2703 153.6946 41° Northeast 223 257 16,200  Level Aus ATC (RADAR)
Sun 10:18:59 PM -28.2411 153.7180 35° Northeast 221 254 16,200  Level Aus ATC (RADAR)
Sun 10:19:49 PM -28.2045 153.6876 324° Northwest 192 221 16,200  Level Aus ATC (RADAR)
Sun 10:20:14 PM -28.1887 153.6698 315° West 190 219 16,200  Level Aus ATC (RADAR)
Sun 10:20:49 PM -28.1665 153.6443 315° West 190 219 16,200  Level Aus ATC (RADAR)
Sun 10:21:34 PM -28.1367 153.6109 315° West 197 227 16,200  Level Aus ATC (RADAR)
Sun 10:21:59 PM -28.1200 153.5927 316° Northwest 196 226 16,200  Level Aus ATC (RADAR)
Sun 10:22:39 PM -28.0910 153.5655 320° Northwest 201 231 16,200  Level Aus ATC (RADAR)
Sun 10:23:24 PM -28.0446 153.5508 344° North 225 259 16,200  Level Aus ATC (RADAR)
Sun 10:23:59 PM -28.0074 153.5365 341° North 238 274 16,200  Level Aus ATC (RADAR)
Sun 10:24:44 PM -27.9582 153.5191 343° North 245 282 16,200  Level Aus ATC (RADAR)
Sun 10:25:09 PM -27.9308 153.5094 343° North 245 282 16,200  Level Aus ATC (RADAR)
Sun 10:25:44 PM -27.8920 153.4956 343° North 248 285 16,200 -63 Level Aus ATC (RADAR)
Sun 10:26:44 PM -27.8251 153.4715 342° North 252 290 16,100 -494 Descending Aus ATC (RADAR)
Sun 10:27:09 PM -27.7952 153.4606 342° North 266 306 15,500 -1,500 Descending Aus ATC (RADAR)
Sun 10:27:44 PM -27.7516 153.4452 343° North 280 322 14,600 -1,425 Descending Aus ATC (RADAR)
Sun 10:28:29 PM -27.6957 153.4253 343° North 280 322 13,600 -1,412 Descending Aus ATC (RADAR)
Sun 10:29:09 PM -27.6467 153.4072 342° North 278 320 12,600 -1,429 Descending Aus ATC (RADAR)
Sun 10:29:53 PM -27.5907 153.3918 346° North 277 319 11,600 -1,391 Descending Aus ATC (RADAR)
Sun 10:30:18 PM -27.5593 153.3854 350° North 275 316 11,000 -1,569 Descending Aus ATC (RADAR)
Sun 10:30:58 PM -27.5084 153.3739 349° North 280 322 9,900 -1,553 Descending Aus ATC (RADAR)
Sun 10:31:43 PM -27.4512 153.3629 350° North 276 318 8,800 -1,543 Descending Aus ATC (RADAR)
Sun 10:32:08 PM -27.4198 153.3571 351° North 275 316 8,100 -1,500 Descending Aus ATC (RADAR)
Sun 10:32:43 PM -27.3766 153.3500 352° North 269 310 7,300 -1,412 Descending Aus ATC (RADAR)
Sun 10:33:33 PM -27.3159 153.3382 350° North 263 303 6,100 -1,533 Descending Aus ATC (RADAR)
Sun 10:34:13 PM -27.2712 153.3269 347° North 246 283 5,000 -1,579 Descending Aus ATC (RADAR)
Sun 10:35:08 PM -27.2255 153.2814 318° Northwest 235 270 3,600 -1,425 Descending Aus ATC (RADAR)
Sun 10:35:33 PM -27.2083 153.2591 311° West 227 261 3,100 -900 Descending Aus ATC (RADAR)
Sun 10:36:08 PM -27.2140 153.2214 260° West 211 243 2,700 -424 Descending Aus ATC (RADAR)
Sun 10:36:58 PM -27.2540 153.2035 202° Southwest 177 204 2,500 -185 Descending Aus ATC (RADAR)
Sun 10:37:13 PM -27.2644 153.1980 205° Southwest 170 196 2,500 -764 Level Aus ATC (RADAR)
Sun 10:37:53 PM -27.2896 153.1835 207° Southwest 154 177 1,800 -918 Descending Aus ATC (RADAR)
Sun 10:38:38 PM -27.3169 153.1680 207° Southwest 147 169 1,200 -750 Descending Aus ATC (RADAR)
Sun 10:39:13 PM -27.3371 153.1559 208° Southwest 140 161 800 -608 Descending Aus ATC (RADAR)
Sun 10:39:57 PM -27.3603 153.1431 206° Southwest 125 144 400 -609 Descending Aus ATC (RADAR)
Sun 10:40:22 PM -27.3732 153.1358 207° Southwest 125 144 100 -720 Descending Aus ATC (RADAR)

Login

Don't have an account? Register now (free) for customized features, flight alerts, and more!